Terminal Aerodrome Forecast
Issued by NWS Albuquerque, NM

Home | Current Version | Previous Version | Text Only | Print | Product List | Glossary On
Versions: 1 2 3 4 5 6 7 8 9 10 11 12 13 14 15 16 17 18 19 20 21 22 23
127
FTUS45 KABQ 250213 AAB
TAFABQ
TAF AMD
KABQ 250213Z 2502/2524 33013G23KT P6SM FEW130
     FM250600 04010KT P6SM SKC
     FM251100 06010G18KT P6SM SKC
     FM251400 07015G25KT P6SM FEW050
     FM251600 09025G30KT P6SM SCT050=

USA.gov is the U.S. government's official web portal to all federal, state and local government web resources and services.